Aérodrome :
LOGIN :

S'inscrire | Disclaimer

   EN    FR    IT 

 










Légende :    VFR   VFR Marginal   IFR   IFR Intensif   IFR Très Intensif
Visi : 
Plafond : 
>= 8 km
>= 3000ft
5 à 8 km
1000 à 3000 ft
1500m à 5 km
500 à 1000 ft
800 à 1500m
200 à 500 ft
< 800m
< 200 ft
Symboles :   Orages  Brouillard  Fortes neiges  Fortes précipitations  Vent > 20 kt
SIGMETs :   Divers  Orages  Givrage  Turbulence  Onde Orograph.  Cendres Volcan.







- Altitude de l'aérodrome : 306 ft
- Code IATA : EMA
- Voir les cartes d'approche


EGNX - Nottingham East Midlands

DERNIER METAR :
  • 280020Z 01006KT 8000 -RA FEW005 SCT024 BKN036 06/06 Q1017

METARs EXPIRÉS :
  • 272350Z 35006KT 8000 -RA FEW006 SCT033 BKN048 07/06 Q1017
  • 272320Z 32006KT 8000 -RA FEW007 SCT018 BKN033 07/07 Q1017
  • 272250Z 32006KT 9999 -RA SCT010 BKN021 07/06 Q1017
  • 272220Z 32005KT 9999 -RA SCT010 BKN021 07/07 Q1017 RERA
  • 272150Z 30006KT 9999 RA BKN015 08/06 Q1017

TAF TAF EGNX
Valide du 28 à 00h jusqu'au 29 à 00h UTC


272253Z 2800/2824 32005KT 9999 SCT020
PROB30
TEMPO 2800/2803 8000 SHRA BKN010
PROB30 2804/2807 8000
ATIS : +44 1332 852 852 (ext 3201)
Pas de NOTAMs connus pour ce terrain.



MET'MAP, la Météo Aéronautique d'un coup d'oeil ! - Copyright ORBIFLY Décembre 2007 - Disclaimer

ORBIFLY MET'MAP TEAM :

Programmation & Développement : Alexandra Zaïnal
Conception & Développement : Baudouin d'Aumeries
Co-Programmation & Développement : Marc-Olivier Méhu
Soutien technique & logistique : Manuel Goepfert

Contact : metmap@orbifly.com




SOURCES & CREDITS :

   NOAA